createdAt,value
2018-03-25T00:02:18.648Z,11.07
2018-03-25T00:04:46.183Z,10.67
2018-03-25T00:07:13.703Z,11.10
2018-03-25T00:09:41.228Z,11.60
2018-03-25T00:12:08.742Z,10.30
2018-03-25T00:14:36.315Z,10.77
2018-03-25T00:17:03.994Z,11.40
2018-03-25T00:19:31.627Z,10.83
2018-03-25T00:22:00.078Z,11.27
2018-03-25T00:24:27.618Z,10.37
2018-03-25T00:26:55.152Z,10.87
2018-03-25T00:29:23.467Z,11.03
2018-03-25T00:31:51.184Z,11.17
2018-03-25T00:34:18.785Z,11.03
2018-03-25T00:36:46.303Z,10.87
2018-03-25T00:39:13.825Z,11.00
2018-03-25T00:41:41.365Z,10.33
2018-03-25T00:44:08.872Z,11.27
2018-03-25T00:46:37.211Z,11.83
2018-03-25T00:49:04.847Z,12.40
2018-03-25T00:51:32.490Z,12.37
2018-03-25T00:54:00.215Z,11.27
2018-03-25T00:56:27.832Z,11.27
2018-03-25T00:58:55.427Z,11.77
2018-03-25T01:01:22.967Z,11.47
2018-03-25T01:03:51.420Z,12.17
2018-03-25T01:06:18.977Z,11.17
2018-03-25T01:08:46.505Z,10.87
2018-03-25T01:11:14.043Z,11.30
2018-03-25T01:13:41.557Z,11.50
2018-03-25T01:16:09.989Z,11.80
2018-03-25T01:18:37.498Z,11.73
2018-03-25T01:21:05.092Z,11.17
2018-03-25T01:23:32.782Z,12.87
2018-03-25T01:26:01.294Z,11.47
2018-03-25T01:28:29.090Z,12.00
2018-03-25T01:30:56.622Z,12.43
2018-03-25T01:33:24.924Z,11.40
2018-03-25T01:35:53.250Z,12.20
2018-03-25T01:38:20.846Z,12.37
2018-03-25T01:40:49.248Z,11.50
2018-03-25T01:43:17.440Z,11.20
2018-03-25T01:45:45.775Z,12.23
2018-03-25T01:48:13.306Z,11.80
2018-03-25T01:50:41.600Z,12.50
2018-03-25T01:53:10.199Z,12.30
2018-03-25T01:55:38.473Z,12.03
2018-03-25T01:58:06.092Z,11.80
2018-03-25T02:00:33.716Z,11.43
2018-03-25T02:03:01.349Z,12.43
2018-03-25T02:05:30.171Z,12.27
2018-03-25T02:07:58.595Z,12.83
2018-03-25T02:10:26.151Z,11.83
2018-03-25T02:12:54.456Z,12.20
2018-03-25T02:15:22.856Z,12.07
2018-03-25T02:17:51.056Z,12.00
2018-03-25T02:20:18.582Z,12.70
2018-03-25T02:22:46.120Z,11.57
2018-03-25T02:25:13.642Z,12.00
2018-03-25T02:27:41.947Z,12.10
2018-03-25T02:30:09.459Z,12.47
2018-03-25T02:32:37.190Z,11.97
2018-03-25T02:35:04.810Z,11.20
2018-03-25T02:37:32.406Z,11.93
2018-03-25T02:40:00.148Z,11.53
2018-03-25T02:42:27.715Z,11.80
2018-03-25T02:44:55.245Z,12.23
2018-03-25T02:47:23.558Z,11.80
2018-03-25T02:49:51.299Z,10.93
2018-03-25T02:52:18.961Z,13.57
2018-03-25T02:54:47.255Z,11.93
2018-03-25T02:57:14.774Z,12.00
2018-03-25T02:59:42.317Z,11.57
2018-03-25T03:02:10.602Z,12.43
2018-03-25T03:04:38.907Z,13.23
2018-03-25T03:07:06.560Z,11.97
2018-03-25T03:09:34.910Z,11.30
2018-03-25T03:12:03.280Z,12.50
2018-03-25T03:14:30.919Z,12.27
2018-03-25T03:16:59.733Z,12.13
2018-03-25T03:19:27.278Z,13.00
2018-03-25T03:21:55.555Z,12.03
2018-03-25T03:24:23.184Z,12.60
2018-03-25T03:26:50.807Z,12.20
2018-03-25T03:29:18.646Z,12.30
2018-03-25T03:31:46.161Z,12.60
2018-03-25T03:34:14.435Z,12.23
2018-03-25T03:36:41.983Z,11.47
2018-03-25T03:39:09.514Z,12.03
2018-03-25T03:41:37.138Z,12.63
2018-03-25T03:44:05.512Z,12.17
2018-03-25T03:46:33.863Z,12.70
2018-03-25T03:49:01.762Z,12.00
2018-03-25T03:51:29.288Z,13.23
2018-03-25T03:53:57.644Z,13.20
2018-03-25T03:56:25.259Z,12.40
2018-03-25T03:58:53.555Z,12.50
2018-03-25T04:01:21.151Z,13.50
2018-03-25T04:03:48.678Z,12.53
2018-03-25T04:06:17.002Z,12.10
2018-03-25T04:08:44.511Z,12.40
2018-03-25T04:11:12.788Z,12.83
2018-03-25T04:13:40.334Z,12.27
2018-03-25T04:16:07.852Z,13.00
2018-03-25T04:18:35.463Z,13.47
2018-03-25T04:21:03.152Z,12.53
2018-03-25T04:23:30.722Z,13.00
2018-03-25T04:25:58.375Z,11.93
2018-03-25T04:28:25.906Z,12.80
2018-03-25T04:30:53.481Z,12.93
2018-03-25T04:33:21.174Z,12.90
2018-03-25T04:35:48.741Z,12.67
2018-03-25T04:38:16.322Z,12.20
2018-03-25T04:40:43.840Z,13.57
2018-03-25T04:43:11.407Z,12.97
2018-03-25T04:45:38.919Z,13.40
2018-03-25T04:48:06.513Z,12.97
2018-03-25T04:50:34.958Z,12.67
2018-03-25T04:53:03.034Z,13.00
2018-03-25T04:55:30.799Z,13.23
2018-03-25T04:57:58.396Z,11.93
2018-03-25T05:00:25.971Z,13.03
2018-03-25T05:02:53.496Z,13.00
2018-03-25T05:05:21.902Z,13.40
2018-03-25T05:07:49.518Z,14.03
2018-03-25T05:10:17.120Z,13.37
2018-03-25T05:12:45.416Z,13.37
2018-03-25T05:15:12.929Z,12.67
2018-03-25T05:17:40.465Z,13.17
2018-03-25T05:20:07.987Z,13.37
2018-03-25T05:22:35.812Z,13.60
2018-03-25T05:25:03.558Z,13.73
2018-03-25T05:27:31.145Z,14.20
2018-03-25T05:29:59.334Z,12.83
2018-03-25T05:32:26.887Z,12.83
2018-03-25T05:34:54.525Z,13.33
2018-03-25T05:37:22.291Z,13.07
2018-03-25T05:39:50.157Z,13.90
2018-03-25T05:42:17.713Z,13.47
2018-03-25T05:44:45.989Z,14.60
2018-03-25T05:47:14.304Z,14.40
2018-03-25T05:49:41.828Z,14.37
2018-03-25T05:52:09.376Z,14.60
2018-03-25T05:54:36.952Z,13.17
2018-03-25T05:57:04.622Z,13.37
2018-03-25T05:59:32.275Z,14.70
2018-03-25T06:02:00.048Z,13.80
2018-03-25T06:04:28.553Z,14.47
2018-03-25T06:06:56.893Z,13.63
2018-03-25T06:09:25.204Z,13.10
2018-03-25T06:11:52.764Z,13.47
2018-03-25T06:14:21.089Z,13.23
2018-03-25T06:16:48.665Z,14.37
2018-03-25T06:19:16.195Z,14.33
2018-03-25T06:21:44.487Z,14.63
2018-03-25T06:24:12.777Z,13.80
2018-03-25T06:26:41.320Z,15.27
2018-03-25T06:29:09.113Z,15.67
2018-03-25T06:31:36.786Z,14.70
2018-03-25T06:34:05.003Z,14.77
2018-03-25T06:36:33.392Z,14.77
2018-03-25T06:39:01.220Z,14.07
2018-03-25T06:41:29.022Z,14.40
2018-03-25T06:43:57.445Z,13.07
2018-03-25T06:46:25.048Z,14.50
2018-03-25T06:48:52.820Z,12.93
2018-03-25T06:51:20.443Z,13.23
2018-03-25T06:53:48.009Z,12.20
2018-03-25T06:56:15.539Z,13.00
2018-03-25T06:58:43.060Z,13.80
2018-03-25T07:01:11.367Z,12.37
2018-03-25T07:03:38.883Z,13.30
2018-03-25T07:06:06.407Z,12.87
2018-03-25T07:08:34.026Z,12.90
2018-03-25T07:11:01.645Z,12.60
2018-03-25T07:13:29.348Z,12.80
2018-03-25T07:15:56.859Z,12.63
2018-03-25T07:18:24.404Z,12.03
2018-03-25T07:20:51.998Z,12.87
2018-03-25T07:23:19.567Z,12.90
2018-03-25T07:25:47.119Z,12.70
2018-03-25T07:28:14.628Z,13.53
2018-03-25T07:30:42.165Z,12.30
2018-03-25T07:33:09.672Z,13.17
2018-03-25T07:35:37.971Z,12.97
2018-03-25T07:38:06.929Z,12.83
2018-03-25T07:40:34.822Z,13.03
2018-03-25T07:43:02.509Z,13.20
2018-03-25T07:45:30.319Z,13.40
2018-03-25T07:47:57.918Z,12.97
2018-03-25T07:50:25.516Z,12.70
2018-03-25T07:52:55.115Z,13.40
2018-03-25T07:55:22.631Z,13.30
2018-03-25T07:57:50.224Z,13.23
2018-03-25T08:00:17.817Z,13.33
2018-03-25T08:02:45.324Z,13.27
2018-03-25T08:05:12.868Z,12.87
2018-03-25T08:07:40.379Z,13.47
2018-03-25T08:10:07.951Z,13.67
2018-03-25T08:12:35.560Z,13.63
2018-03-25T08:15:03.152Z,13.23
2018-03-25T08:17:30.843Z,13.50
2018-03-25T08:19:58.575Z,12.63
2018-03-25T08:22:26.131Z,13.87
2018-03-25T08:24:54.411Z,13.43
2018-03-25T08:27:21.955Z,13.47
2018-03-25T08:29:49.596Z,13.43
2018-03-25T08:32:17.111Z,13.27
2018-03-25T08:34:44.656Z,13.87
2018-03-25T08:37:12.180Z,13.37
2018-03-25T08:39:41.135Z,13.00
2018-03-25T08:42:08.659Z,12.90
2018-03-25T08:44:36.199Z,14.03
2018-03-25T08:47:03.837Z,13.00
2018-03-25T08:49:31.525Z,13.60
2018-03-25T08:51:59.299Z,13.67
2018-03-25T08:54:26.835Z,13.83
2018-03-25T08:56:54.392Z,12.97
2018-03-25T08:59:21.961Z,13.97
2018-03-25T09:01:49.657Z,13.63
2018-03-25T09:04:17.204Z,12.77
2018-03-25T09:06:44.731Z,13.90
2018-03-25T09:09:12.303Z,13.40
2018-03-25T09:11:39.823Z,13.67
2018-03-25T09:14:08.139Z,13.33
2018-03-25T09:16:35.875Z,14.27
2018-03-25T09:19:04.300Z,14.30
2018-03-25T09:21:32.036Z,14.20
2018-03-25T09:23:59.754Z,14.13
2018-03-25T09:26:27.307Z,14.17
2018-03-25T09:28:54.832Z,13.07
2018-03-25T09:31:22.377Z,14.67
2018-03-25T09:33:50.038Z,14.80
2018-03-25T09:36:17.589Z,14.37
2018-03-25T09:38:45.124Z,15.03
2018-03-25T09:41:12.664Z,14.33
2018-03-25T09:43:40.200Z,14.67
2018-03-25T09:46:07.728Z,14.17
2018-03-25T09:48:35.420Z,14.43
2018-03-25T09:51:03.101Z,13.20
2018-03-25T09:53:31.675Z,15.27
2018-03-25T09:55:59.434Z,13.87
2018-03-25T09:58:27.033Z,14.17
2018-03-25T10:01:00.131Z,14.77
2018-03-25T10:03:30.812Z,14.70
2018-03-25T10:05:58.873Z,14.67
2018-03-25T10:08:26.430Z,14.40
2018-03-25T10:10:53.993Z,15.17
2018-03-25T10:13:21.586Z,14.37
2018-03-25T10:15:49.150Z,15.17
2018-03-25T10:18:16.720Z,15.30
2018-03-25T10:20:44.235Z,14.63
2018-03-25T10:23:11.771Z,14.83
2018-03-25T10:25:40.170Z,15.23
2018-03-25T10:28:08.475Z,15.53
2018-03-25T10:30:36.047Z,14.73
2018-03-25T10:33:03.960Z,14.97
2018-03-25T10:35:31.736Z,14.87
2018-03-25T10:38:00.293Z,15.93
2018-03-25T10:40:27.863Z,15.87
2018-03-25T10:42:55.391Z,16.20
2018-03-25T10:45:22.930Z,15.90
2018-03-25T10:47:51.055Z,16.40
2018-03-25T10:50:18.739Z,16.23
2018-03-25T10:52:46.296Z,15.77
2018-03-25T10:55:13.828Z,15.23
2018-03-25T10:57:41.380Z,15.87
2018-03-25T11:00:08.892Z,15.90
2018-03-25T11:02:36.448Z,15.43
2018-03-25T11:05:04.076Z,15.33
2018-03-25T11:07:32.597Z,15.33
2018-03-25T11:10:00.428Z,16.33
2018-03-25T11:12:28.086Z,15.80
2018-03-25T11:14:55.932Z,15.80
2018-03-25T11:17:23.461Z,15.47
2018-03-25T11:19:51.831Z,16.27
2018-03-25T11:22:19.477Z,15.13
2018-03-25T11:24:47.775Z,16.80
2018-03-25T11:27:15.326Z,15.83
2018-03-25T11:29:42.845Z,15.60
2018-03-25T11:32:10.395Z,16.00
2018-03-25T11:34:37.956Z,15.93
2018-03-25T11:37:06.160Z,16.13
2018-03-25T11:39:33.709Z,16.23
2018-03-25T11:42:01.599Z,15.83
2018-03-25T11:44:29.281Z,15.40
2018-03-25T11:46:56.800Z,15.30
2018-03-25T11:49:24.347Z,15.37
2018-03-25T11:51:52.041Z,15.47
2018-03-25T11:54:20.576Z,15.07
2018-03-25T11:56:48.123Z,15.63
2018-03-25T11:59:15.658Z,14.13
2018-03-25T12:01:43.176Z,15.57
2018-03-25T12:04:10.711Z,15.47
2018-03-25T12:06:38.991Z,14.97
2018-03-25T12:09:07.344Z,15.73
2018-03-25T12:11:34.910Z,15.17
2018-03-25T12:14:02.501Z,15.47
2018-03-25T12:16:30.942Z,15.43
2018-03-25T12:18:58.770Z,15.47
2018-03-25T12:21:26.316Z,15.53
2018-03-25T12:23:53.848Z,16.40
2018-03-25T12:26:21.399Z,14.77
2018-03-25T12:28:49.732Z,15.70
2018-03-25T12:31:17.290Z,16.17
2018-03-25T12:33:45.184Z,16.00
2018-03-25T12:36:12.720Z,15.83
2018-03-25T12:38:42.025Z,15.53
2018-03-25T12:41:09.582Z,16.30
2018-03-25T12:43:37.119Z,15.13
2018-03-25T12:46:04.916Z,15.30
2018-03-25T12:48:33.912Z,14.80
2018-03-25T12:51:02.405Z,15.60
2018-03-25T12:53:30.089Z,14.77
2018-03-25T12:55:58.884Z,15.35
2018-03-25T12:58:27.259Z,14.87
2018-03-25T13:00:55.264Z,15.90
2018-03-25T13:03:22.796Z,15.07
2018-03-25T13:05:50.320Z,15.40
2018-03-25T13:08:17.869Z,14.67
2018-03-25T13:10:45.400Z,14.50
2018-03-25T13:13:12.933Z,15.27
2018-03-25T13:15:40.471Z,15.17
2018-03-25T13:18:08.027Z,14.83
2018-03-25T13:20:36.378Z,14.30
2018-03-25T13:23:05.089Z,15.00
2018-03-25T13:25:32.789Z,13.63
2018-03-25T13:28:00.381Z,14.50
2018-03-25T13:30:27.966Z,15.20
2018-03-25T13:32:56.396Z,14.80
2018-03-25T13:35:24.707Z,13.70
2018-03-25T13:37:52.269Z,13.67
2018-03-25T13:40:19.882Z,12.97
2018-03-25T13:42:47.449Z,14.93
2018-03-25T13:45:14.968Z,13.13
2018-03-25T13:47:43.267Z,14.67
2018-03-25T13:50:10.794Z,14.40
2018-03-25T13:52:38.340Z,15.33
2018-03-25T13:55:05.862Z,13.23
2018-03-25T13:57:34.295Z,14.47
2018-03-25T14:00:01.955Z,15.03
2018-03-25T14:02:29.588Z,14.87
2018-03-25T14:04:57.926Z,14.70
2018-03-25T14:07:25.492Z,14.57
2018-03-25T14:09:53.050Z,13.90
2018-03-25T14:12:20.598Z,14.00
2018-03-25T14:14:48.110Z,15.17
2018-03-25T14:17:15.655Z,13.30
2018-03-25T14:19:43.936Z,13.87
2018-03-25T14:22:12.235Z,14.40
2018-03-25T14:24:39.776Z,14.47
2018-03-25T14:27:07.312Z,14.87
2018-03-25T14:29:34.869Z,14.77
2018-03-25T14:32:03.021Z,15.10
2018-03-25T14:34:30.891Z,15.23
2018-03-25T14:37:00.228Z,15.30
2018-03-25T14:39:27.788Z,15.13
2018-03-25T14:41:56.080Z,15.47
2018-03-25T14:44:24.449Z,15.70
2018-03-25T14:46:51.975Z,15.40
2018-03-25T14:49:19.568Z,15.30
2018-03-25T14:51:47.108Z,15.83
2018-03-25T14:54:14.654Z,15.07
2018-03-25T14:56:42.939Z,15.30
2018-03-25T14:59:11.248Z,16.57
2018-03-25T15:01:38.796Z,16.93
2018-03-25T15:04:07.103Z,16.40
2018-03-25T15:06:34.800Z,15.50
2018-03-25T15:09:02.511Z,15.93
2018-03-25T15:11:30.225Z,17.17
2018-03-25T15:13:57.760Z,16.07
2018-03-25T15:16:25.360Z,16.40
2018-03-25T15:18:52.889Z,15.87
2018-03-25T15:21:20.459Z,15.90
2018-03-25T15:23:48.116Z,17.00
2018-03-25T15:26:15.667Z,17.13
2018-03-25T15:28:43.190Z,17.50
2018-03-25T15:31:10.721Z,16.37
2018-03-25T15:33:38.285Z,18.23
2018-03-25T15:36:05.892Z,18.67
2018-03-25T15:38:33.550Z,17.70
2018-03-25T15:41:01.121Z,18.90
2018-03-25T15:43:28.760Z,18.17
2018-03-25T15:45:56.308Z,19.17
2018-03-25T15:48:24.623Z,18.67
2018-03-25T15:50:52.167Z,18.70
2018-03-25T15:53:19.741Z,19.03
2018-03-25T15:55:48.040Z,18.57
2018-03-25T15:58:15.576Z,18.77
2018-03-25T16:00:43.138Z,17.70
2018-03-25T16:03:10.664Z,18.00
2018-03-25T16:05:38.279Z,19.63
2018-03-25T16:08:05.846Z,19.13
2018-03-25T16:10:33.479Z,19.47
2018-03-25T16:13:03.981Z,19.17
2018-03-25T16:15:32.336Z,19.40
2018-03-25T16:17:59.921Z,20.93
2018-03-25T16:20:28.294Z,20.70
2018-03-25T16:22:55.827Z,20.00
2018-03-25T16:25:23.371Z,20.63
2018-03-25T16:27:51.131Z,21.43
2018-03-25T16:30:19.558Z,22.03
2018-03-25T16:32:47.880Z,22.87
2018-03-25T16:35:15.439Z,22.40
2018-03-25T16:37:42.969Z,22.33
2018-03-25T16:40:10.508Z,23.33
2018-03-25T16:42:38.024Z,21.80
2018-03-25T16:45:06.917Z,21.03
2018-03-25T16:47:34.563Z,21.73
2018-03-25T16:50:02.195Z,20.97
2018-03-25T16:52:29.891Z,22.63
2018-03-25T16:54:57.441Z,22.37
2018-03-25T16:57:25.016Z,21.40
2018-03-25T16:59:53.173Z,23.13
2018-03-25T17:02:21.488Z,22.27
2018-03-25T17:04:49.087Z,22.03
2018-03-25T17:07:16.630Z,22.63
2018-03-25T17:09:44.162Z,21.93
2018-03-25T17:12:11.696Z,23.23
2018-03-25T17:14:39.224Z,22.10
2018-03-25T17:17:07.536Z,22.67
2018-03-25T17:19:35.159Z,22.90
2018-03-25T17:22:02.845Z,23.50
2018-03-25T17:24:31.988Z,21.77
2018-03-25T17:26:59.579Z,23.77
2018-03-25T17:29:27.344Z,23.00
2018-03-25T17:31:54.860Z,23.20
2018-03-25T17:34:22.436Z,23.17
2018-03-25T17:36:50.203Z,23.97
2018-03-25T17:39:17.772Z,23.60
2018-03-25T17:41:46.600Z,23.13
2018-03-25T17:44:14.912Z,23.03
2018-03-25T17:46:42.455Z,22.63
2018-03-25T17:49:10.031Z,24.17
2018-03-25T17:51:38.317Z,22.93
2018-03-25T17:54:06.636Z,23.77
2018-03-25T17:56:34.248Z,24.57
2018-03-25T17:59:01.911Z,23.80
2018-03-25T18:01:29.555Z,25.03
2018-03-25T18:03:57.083Z,23.90
2018-03-25T18:06:24.647Z,23.83
2018-03-25T18:08:52.206Z,25.03
2018-03-25T18:11:19.882Z,22.67
2018-03-25T18:13:49.696Z,24.47
2018-03-25T18:16:17.232Z,24.43
2018-03-25T18:18:44.744Z,25.43
2018-03-25T18:21:12.296Z,24.57
2018-03-25T18:23:39.803Z,24.57
2018-03-25T18:26:07.362Z,24.23
2018-03-25T18:28:34.950Z,24.60
2018-03-25T18:31:03.319Z,26.00
2018-03-25T18:33:30.989Z,24.33
2018-03-25T18:35:58.738Z,25.27
2018-03-25T18:38:26.279Z,25.13
2018-03-25T18:40:54.559Z,25.53
2018-03-25T18:43:22.863Z,26.87
2018-03-25T18:45:51.253Z,26.13
2018-03-25T18:48:18.830Z,25.60
2018-03-25T18:50:46.392Z,25.47
2018-03-25T18:53:15.279Z,26.90
2018-03-25T18:55:42.812Z,25.23
2018-03-25T18:58:10.331Z,26.00
2018-03-25T19:00:39.583Z,27.17
2018-03-25T19:03:07.103Z,25.83
2018-03-25T19:05:35.446Z,25.77
2018-03-25T19:08:03.120Z,25.73
2018-03-25T19:10:30.783Z,25.73
2018-03-25T19:12:58.455Z,26.27
2018-03-25T19:15:26.060Z,25.10
2018-03-25T19:17:53.580Z,25.63
2018-03-25T19:20:21.243Z,26.80
2018-03-25T19:22:48.850Z,24.63
2018-03-25T19:25:16.387Z,26.83
2018-03-25T19:27:44.757Z,25.83
2018-03-25T19:30:12.279Z,25.20
2018-03-25T19:32:39.823Z,27.10
2018-03-25T19:35:07.384Z,25.77
2018-03-25T19:37:35.729Z,26.43
2018-03-25T19:40:03.308Z,25.27
2018-03-25T19:42:30.972Z,25.77
2018-03-25T19:44:58.604Z,26.10
2018-03-25T19:47:26.264Z,26.03
2018-03-25T19:49:54.543Z,26.43
2018-03-25T19:52:22.135Z,26.07
2018-03-25T19:54:49.772Z,26.23
2018-03-25T19:57:17.321Z,25.50
2018-03-25T19:59:44.828Z,24.80
2018-03-25T20:02:12.371Z,24.33
2018-03-25T20:04:39.892Z,25.57
2018-03-25T20:07:08.197Z,24.90
2018-03-25T20:09:35.856Z,24.37
2018-03-25T20:12:03.444Z,24.30
2018-03-25T20:14:31.088Z,24.43
2018-03-25T20:16:59.639Z,24.83
2018-03-25T20:19:27.599Z,24.10
2018-03-25T20:21:55.111Z,23.63
2018-03-25T20:24:22.712Z,25.20
2018-03-25T20:26:50.285Z,25.27
2018-03-25T20:29:17.823Z,24.17
2018-03-25T20:31:45.339Z,24.93
2018-03-25T20:34:12.887Z,25.13
2018-03-25T20:36:41.180Z,23.60
2018-03-25T20:39:09.451Z,25.93
2018-03-25T20:41:37.204Z,26.23
2018-03-25T20:44:04.747Z,25.13
2018-03-25T20:46:32.357Z,24.97
2018-03-25T20:49:00.757Z,26.43
2018-03-25T20:51:28.550Z,26.33
2018-03-25T20:53:56.843Z,17.17
2018-03-25T20:56:25.155Z,26.33
2018-03-25T20:58:52.678Z,25.30
2018-03-25T21:01:20.296Z,25.30
2018-03-25T21:03:47.862Z,26.20
2018-03-25T21:06:15.380Z,23.80
2018-03-25T21:08:42.920Z,26.07
2018-03-25T21:11:10.434Z,26.13
2018-03-25T21:13:37.979Z,26.10
2018-03-25T21:16:07.286Z,25.40
2018-03-25T21:18:34.988Z,25.53
2018-03-25T21:21:02.550Z,25.20
2018-03-25T21:23:30.260Z,23.37
2018-03-25T21:25:57.780Z,23.00
2018-03-25T21:28:25.323Z,23.80
2018-03-25T21:30:52.855Z,25.07
2018-03-25T21:33:21.252Z,24.47
2018-03-25T21:35:50.178Z,23.67
2018-03-25T21:38:17.695Z,24.60
2018-03-25T21:40:45.228Z,22.97
2018-03-25T21:43:12.746Z,25.83
2018-03-25T21:45:40.280Z,25.43
2018-03-25T21:48:07.804Z,23.17
2018-03-25T21:50:35.364Z,24.20
2018-03-25T21:53:02.940Z,24.90
2018-03-25T21:55:31.292Z,24.27
2018-03-25T21:57:58.932Z,24.10
2018-03-25T22:00:26.454Z,24.80
2018-03-25T22:02:53.991Z,23.70
2018-03-25T22:05:22.463Z,24.57
2018-03-25T22:07:50.804Z,23.90
2018-03-25T22:10:18.335Z,25.00
2018-03-25T22:12:45.876Z,23.53
2018-03-25T22:15:14.160Z,22.70
2018-03-25T22:17:41.703Z,24.10
2018-03-25T22:20:09.223Z,24.97
2018-03-25T22:22:37.505Z,24.50
2018-03-25T22:25:05.134Z,24.53
2018-03-25T22:27:33.498Z,24.83
2018-03-25T22:30:01.083Z,24.63
2018-03-25T22:32:28.663Z,22.60
2018-03-25T22:34:56.207Z,24.97
2018-03-25T22:37:23.723Z,24.30
2018-03-25T22:39:51.360Z,24.50
2018-03-25T22:42:21.458Z,25.20
2018-03-25T22:44:49.811Z,25.03
2018-03-25T22:47:17.343Z,24.40
2018-03-25T22:49:44.864Z,25.33
2018-03-25T22:52:12.403Z,24.97
2018-03-25T22:54:39.919Z,26.27
2018-03-25T22:57:08.225Z,26.37
2018-03-25T22:59:35.856Z,25.83
2018-03-25T23:02:03.497Z,25.67
2018-03-25T23:04:31.100Z,24.93
2018-03-25T23:06:58.829Z,25.50
2018-03-25T23:09:26.352Z,26.57
2018-03-25T23:11:53.869Z,26.43
2018-03-25T23:14:21.483Z,27.10
2018-03-25T23:16:49.031Z,26.63
2018-03-25T23:19:16.584Z,26.10
2018-03-25T23:21:44.096Z,26.80
2018-03-25T23:24:12.233Z,28.20
2018-03-25T23:26:39.754Z,25.77
2018-03-25T23:29:07.431Z,25.97
2018-03-25T23:31:35.056Z,26.30
2018-03-25T23:34:02.780Z,25.57
2018-03-25T23:36:31.293Z,27.00
2018-03-25T23:38:58.900Z,25.57
2018-03-25T23:41:26.440Z,27.40
2018-03-25T23:43:55.408Z,26.63
2018-03-25T23:46:22.995Z,26.33
2018-03-25T23:48:50.654Z,24.97
2018-03-25T23:51:18.227Z,27.57
2018-03-25T23:53:45.747Z,26.57
2018-03-25T23:56:13.437Z,27.57
2018-03-25T23:58:40.992Z,28.17
